Time;durP1;ratioP1;P1;durP2;ratioP2;P2;SDS_P1;SDS_P2;PMS_P1;PMS_P2;Temp;Humidity;BMP_temperature;BMP_pressure;BME280_temperature;BME280_humidity;BME280_pressure;Samples;Min_cycle;Max_cycle;Signal;HPM_P1;HPM_P2
2020/12/10 00:01:16;;;;;;;18.30;13.50;;;2.20;99.90;;;;;;6183565;23;20468;-89
2020/12/10 00:03:50;;;;;;;18.87;14.00;;;2.20;99.90;;;;;;6184894;23;20185;-90
2020/12/10 00:06:28;;;;;;;17.63;13.90;;;2.20;99.90;;;;;;6185210;23;20400;-89
2020/12/10 00:09:03;;;;;;;18.97;14.20;;;2.20;99.90;;;;;;6183672;23;20393;-90
2020/12/10 00:11:49;;;;;;;19.73;14.77;;;2.10;99.90;;;;;;6184018;23;20448;-90
2020/12/10 00:14:19;;;;;;;17.37;13.43;;;2.10;99.90;;;;;;6182143;23;20211;-90
2020/12/10 00:17:24;;;;;;;19.93;13.57;;;2.20;99.90;;;;;;6159951;23;20390;-91
2020/12/10 00:19:50;;;;;;;15.07;12.33;;;2.10;99.90;;;;;;6184595;23;20428;-89
2020/12/10 00:22:16;;;;;;;12.30;10.10;;;2.20;99.90;;;;;;6184539;23;20376;-88
2020/12/10 00:24:42;;;;;;;18.30;12.30;;;2.20;99.90;;;;;;6179782;23;20598;-89
2020/12/10 00:27:08;;;;;;;20.93;14.37;;;2.10;99.90;;;;;;6185210;23;20471;-89
2020/12/10 00:29:34;;;;;;;22.40;14.93;;;2.10;99.90;;;;;;6184773;23;20221;-90
2020/12/10 00:32:24;;;;;;;26.03;15.87;;;2.10;99.90;;;;;;6183302;23;20474;-90
2020/12/10 00:34:50;;;;;;;28.10;16.60;;;2.00;99.90;;;;;;6184216;23;20191;-89
2020/12/10 00:37:17;;;;;;;27.30;16.60;;;2.00;99.90;;;;;;6210726;23;20701;-90
2020/12/10 00:39:42;;;;;;;24.50;14.83;;;2.10;99.90;;;;;;6183263;23;20230;-89
2020/12/10 00:42:08;;;;;;;25.40;15.90;;;2.10;99.90;;;;;;6183037;23;20482;-89
2020/12/10 00:44:34;;;;;;;31.30;16.53;;;2.10;99.90;;;;;;6184298;23;20398;-89
2020/12/10 00:47:00;;;;;;;30.73;18.23;;;2.00;99.90;;;;;;6183075;23;20162;-89
2020/12/10 00:49:26;;;;;;;31.00;19.07;;;2.00;99.90;;;;;;6183807;23;20245;-90
2020/12/10 00:52:13;;;;;;;28.60;16.40;;;1.90;99.90;;;;;;6184857;23;20402;-91
2020/12/10 00:54:39;;;;;;;29.80;18.07;;;1.90;99.90;;;;;;6208293;23;20439;-90
2020/12/10 00:57:13;;;;;;;31.07;18.87;;;1.90;99.90;;;;;;6183621;23;20383;-90
2020/12/10 00:59:40;;;;;;;31.87;18.70;;;1.90;99.90;;;;;;6183791;23;20477;-90
2020/12/10 01:02:07;;;;;;;30.03;17.83;;;1.90;99.90;;;;;;6184342;23;20480;-90
2020/12/10 01:04:34;;;;;;;29.00;16.70;;;1.90;99.90;;;;;;6184033;23;20474;-89
2020/12/10 01:07:03;;;;;;;25.13;16.50;;;1.90;99.90;;;;;;6159276;23;20391;-90
2020/12/10 01:09:29;;;;;;;31.13;18.00;;;1.80;99.90;;;;;;6182933;23;20464;-89
2020/12/10 01:11:55;;;;;;;28.30;17.23;;;1.90;99.90;;;;;;6184448;23;20390;-89
2020/12/10 01:14:21;;;;;;;31.87;18.80;;;1.80;99.90;;;;;;6182224;23;20192;-90
2020/12/10 01:16:47;;;;;;;29.43;18.03;;;1.80;99.90;;;;;;6184014;23;20710;-89
2020/12/10 01:19:33;;;;;;;31.87;18.03;;;1.80;99.90;;;;;;6210803;23;20387;-89
2020/12/10 01:21:59;;;;;;;27.80;17.20;;;1.80;99.90;;;;;;6183567;23;20485;-90
2020/12/10 01:24:24;;;;;;;29.70;16.20;;;1.90;99.90;;;;;;6184818;23;20827;-90
2020/12/10 01:26:59;;;;;;;26.77;16.90;;;1.80;99.90;;;;;;6183867;23;20186;-90
2020/12/10 01:29:25;;;;;;;33.50;19.17;;;1.80;99.90;;;;;;6182545;23;20249;-90
2020/12/10 01:31:51;;;;;;;32.13;18.37;;;1.70;99.90;;;;;;6182847;23;20391;-89
2020/12/10 01:34:18;;;;;;;33.67;19.60;;;1.80;99.90;;;;;;6184032;23;20787;-89
2020/12/10 01:36:46;;;;;;;32.93;17.70;;;1.80;99.90;;;;;;6183551;23;20379;-90
2020/12/10 01:39:17;;;;;;;31.00;18.87;;;1.80;99.90;;;;;;6159255;23;20399;-89
2020/12/10 01:42:09;;;;;;;39.27;19.80;;;1.70;99.90;;;;;;6184733;23;20429;-90
2020/12/10 01:48:32;;;;;;;40.33;20.33;;;1.70;99.90;;;;;;6211418;23;20366;-90
2020/12/10 01:51:11;;;;;;;36.57;19.27;;;1.70;99.90;;;;;;6183453;23;20382;-91
2020/12/10 01:53:37;;;;;;;43.20;19.87;;;1.60;99.90;;;;;;6184540;23;20415;-90
2020/12/10 01:56:10;;;;;;;41.73;22.03;;;1.60;99.90;;;;;;6185500;23;20695;-90
2020/12/10 01:58:36;;;;;;;42.77;20.60;;;1.60;99.90;;;;;;6210432;23;20163;-89
2020/12/10 02:01:02;;;;;;;42.07;20.90;;;1.60;99.90;;;;;;6182328;23;20740;-90
2020/12/10 02:03:30;;;;;;;38.07;20.67;;;1.60;99.90;;;;;;6182604;23;20160;-90
2020/12/10 02:05:58;;;;;;;38.80;22.90;;;1.70;99.90;;;;;;6182107;23;20387;-90
2020/12/10 02:08:24;;;;;;;36.27;19.30;;;1.60;99.90;;;;;;6184739;23;20473;-90
2020/12/10 02:11:32;;;;;;;36.20;20.13;;;1.70;99.90;;;;;;6206991;23;20386;-89
2020/12/10 02:14:21;;;;;;;35.53;19.60;;;1.60;99.90;;;;;;6210181;23;20485;-90
2020/12/10 02:17:09;;;;;;;34.43;19.27;;;1.70;99.90;;;;;;6184502;23;20387;-90
2020/12/10 02:19:40;;;;;;;38.57;21.07;;;1.70;99.90;;;;;;6207820;23;20403;-90
2020/12/10 02:23:01;;;;;;;38.70;19.80;;;1.70;99.90;;;;;;6210619;23;20398;-90
2020/12/10 02:25:30;;;;;;;38.43;19.33;;;1.60;99.90;;;;;;6176502;23;20450;-90
2020/12/10 02:28:12;;;;;;;40.47;20.80;;;1.70;99.90;;;;;;6206936;23;20915;-91
2020/12/10 02:30:39;;;;;;;35.10;19.20;;;1.70;99.90;;;;;;6208831;23;20452;-90
2020/12/10 02:33:19;;;;;;;38.87;20.90;;;1.70;99.90;;;;;;6183639;23;20382;-91
2020/12/10 02:35:46;;;;;;;39.57;20.43;;;1.70;99.90;;;;;;6183579;23;20485;-89
2020/12/10 02:38:14;;;;;;;36.10;18.43;;;1.70;99.90;;;;;;6182780;23;20390;-89
2020/12/10 02:40:59;;;;;;;38.73;19.53;;;1.70;99.90;;;;;;6182159;23;20434;-90
2020/12/10 02:43:51;;;;;;;35.60;18.40;;;1.70;99.90;;;;;;6185464;23;20391;-89
2020/12/10 02:49:27;;;;;;;38.10;19.93;;;1.60;99.90;;;;;;6210595;23;20367;-89
2020/12/10 02:52:12;;;;;;;35.07;19.33;;;1.60;99.90;;;;;;6182337;23;20396;-89
2020/12/10 02:54:38;;;;;;;41.80;20.77;;;1.60;99.90;;;;;;6158782;23;20435;-89
2020/12/10 02:57:03;;;;;;;38.53;19.87;;;1.60;99.90;;;;;;6183606;23;20461;-90
2020/12/10 02:59:29;;;;;;;40.27;19.80;;;1.60;99.90;;;;;;6183161;23;20552;-89
2020/12/10 03:01:56;;;;;;;36.70;20.27;;;1.60;99.90;;;;;;6182187;23;20156;-89
2020/12/10 03:04:21;;;;;;;34.53;19.67;;;1.60;99.90;;;;;;6184050;23;20156;-89
2020/12/10 03:06:47;;;;;;;38.47;20.50;;;1.60;99.90;;;;;;6182896;23;20419;-89
2020/12/10 03:09:13;;;;;;;35.93;18.63;;;1.60;99.90;;;;;;6184059;23;20212;-89
2020/12/10 03:12:05;;;;;;;37.43;18.77;;;1.50;99.90;;;;;;6209100;23;20213;-89
2020/12/10 03:14:31;;;;;;;40.30;18.90;;;1.60;99.90;;;;;;6185841;23;20429;-89
2020/12/10 03:16:56;;;;;;;43.20;22.00;;;1.60;99.90;;;;;;6185588;23;20385;-89
2020/12/10 03:19:22;;;;;;;44.70;22.00;;;1.50;99.90;;;;;;6185091;23;20191;-90
2020/12/10 03:21:49;;;;;;;39.87;21.60;;;1.50;99.90;;;;;;6184853;23;20155;-89
2020/12/10 03:24:14;;;;;;;42.77;20.70;;;1.50;99.90;;;;;;6184680;23;20163;-91
2020/12/10 03:26:40;;;;;;;47.63;22.40;;;1.50;99.90;;;;;;6186150;23;20383;-89
2020/12/10 03:29:08;;;;;;;43.03;22.80;;;1.50;99.90;;;;;;6184606;23;20152;-89
2020/12/10 03:31:37;;;;;;;38.27;19.73;;;1.50;99.90;;;;;;6207241;23;20175;-89
2020/12/10 03:34:04;;;;;;;45.37;21.20;;;1.50;99.90;;;;;;6209246;23;20473;-90
2020/12/10 03:36:47;;;;;;;41.10;19.80;;;1.50;99.90;;;;;;6212313;23;20391;-89
2020/12/10 03:39:12;;;;;;;42.40;21.47;;;1.50;99.90;;;;;;6210406;23;20413;-89
2020/12/10 03:41:38;;;;;;;38.80;20.63;;;1.60;99.90;;;;;;6209352;23;20387;-88
2020/12/10 03:46:59;;;;;;;45.20;22.40;;;1.60;99.90;;;;;;6211569;23;20482;-90
2020/12/10 03:49:24;;;;;;;44.27;22.20;;;1.50;99.90;;;;;;6210827;23;20721;-88
2020/12/10 03:51:50;;;;;;;39.20;22.00;;;1.50;99.90;;;;;;6210243;23;20412;-89
2020/12/10 03:54:24;;;;;;;44.50;22.33;;;1.50;99.90;;;;;;6209744;23;20179;-89
2020/12/10 03:56:50;;;;;;;40.87;21.33;;;1.40;99.90;;;;;;6210138;23;20151;-89
2020/12/10 03:59:24;;;;;;;41.43;21.37;;;1.40;99.90;;;;;;6210489;23;20421;-91
2020/12/10 04:01:58;;;;;;;45.10;21.60;;;1.50;99.90;;;;;;6210195;23;20152;-91
2020/12/10 04:05:19;;;;;;;42.93;20.70;;;1.50;99.90;;;;;;6208684;23;20418;-90
2020/12/10 04:08:12;;;;;;;36.23;18.73;;;1.40;99.90;;;;;;6176543;23;20758;-89
2020/12/10 04:10:54;;;;;;;38.20;20.93;;;1.40;99.90;;;;;;6209309;23;20421;-90
2020/12/10 04:13:23;;;;;;;36.10;20.50;;;1.40;99.90;;;;;;6209602;23;20932;-90
2020/12/10 04:15:48;;;;;;;34.27;19.07;;;1.40;99.90;;;;;;6210373;23;20709;-89
2020/12/10 04:18:14;;;;;;;40.23;19.77;;;1.50;99.90;;;;;;6209436;23;20391;-90
2020/12/10 04:20:39;;;;;;;36.50;19.50;;;1.40;99.90;;;;;;6208809;23;20598;-90
2020/12/10 04:23:05;;;;;;;31.30;17.00;;;1.50;99.90;;;;;;6210044;23;20155;-91
2020/12/10 04:25:31;;;;;;;33.43;19.07;;;1.50;99.90;;;;;;6210148;23;20156;-90
2020/12/10 04:27:57;;;;;;;36.03;19.90;;;1.50;99.90;;;;;;6210065;23;20463;-90
2020/12/10 04:30:23;;;;;;;36.43;20.10;;;1.50;99.90;;;;;;6210663;23;20356;-91
2020/12/10 04:33:19;;;;;;;34.30;18.87;;;1.50;99.90;;;;;;6184932;23;20427;-91
2020/12/10 04:36:10;;;;;;;42.53;20.43;;;1.50;99.90;;;;;;6184232;23;20172;-90
2020/12/10 04:38:36;;;;;;;43.30;20.90;;;1.50;99.90;;;;;;6184302;23;20919;-90
2020/12/10 04:41:03;;;;;;;36.53;20.70;;;1.50;99.90;;;;;;6185161;23;20394;-90
2020/12/10 04:43:29;;;;;;;37.37;20.13;;;1.50;99.90;;;;;;6183816;23;20163;-90
2020/12/10 04:46:00;;;;;;;41.20;20.47;;;1.50;99.90;;;;;;6184011;23;20482;-90
2020/12/10 04:48:33;;;;;;;37.67;19.60;;;1.50;99.90;;;;;;6185230;23;20164;-90
2020/12/10 04:51:02;;;;;;;33.87;17.90;;;1.40;99.90;;;;;;6184034;23;20415;-90
2020/12/10 04:53:28;;;;;;;34.53;18.70;;;1.40;99.90;;;;;;6183014;23;20426;-90
2020/12/10 04:55:59;;;;;;;37.53;19.90;;;1.40;99.90;;;;;;6182763;23;20411;-90
2020/12/10 04:58:38;;;;;;;34.50;18.67;;;1.40;99.90;;;;;;6210352;23;20152;-90
2020/12/10 05:01:06;;;;;;;34.47;19.40;;;1.40;99.90;;;;;;6182816;23;20395;-89
2020/12/10 05:06:16;;;;;;;33.43;17.90;;;1.30;99.90;;;;;;6211508;23;20853;-89
2020/12/10 05:09:15;;;;;;;30.53;17.40;;;1.30;99.90;;;;;;6183741;23;20383;-90
2020/12/10 05:11:46;;;;;;;31.30;18.90;;;1.40;99.90;;;;;;6183219;23;20387;-91
2020/12/10 05:14:38;;;;;;;29.50;18.00;;;1.30;99.90;;;;;;6184275;23;20430;-90
2020/12/10 05:17:21;;;;;;;26.23;16.33;;;1.30;99.90;;;;;;6184497;23;20379;-90
2020/12/10 05:20:34;;;;;;;33.80;18.23;;;1.30;99.90;;;;;;6183611;23;20807;-90
2020/12/10 05:23:00;;;;;;;36.00;18.60;;;1.30;99.90;;;;;;6184597;23;20379;-90
2020/12/10 05:29:46;;;;;;;33.00;18.10;;;1.30;99.90;;;;;;6209171;23;20160;-88
2020/12/10 05:45:10;;;;;;;44.97;20.53;;;1.30;99.90;;;;;;6176516;22;20781;-87
2020/12/10 05:47:59;;;;;;;37.80;20.10;;;1.30;99.90;;;;;;6184991;23;20909;-87
2020/12/10 05:50:30;;;;;;;46.13;21.57;;;1.30;99.90;;;;;;6168300;23;20494;-87
2020/12/10 05:53:08;;;;;;;43.23;20.47;;;1.30;99.90;;;;;;6184511;23;20386;-87
2020/12/10 05:55:39;;;;;;;39.90;20.07;;;1.40;99.90;;;;;;6183958;23;20414;-88
2020/12/10 05:58:11;;;;;;;45.77;21.47;;;1.30;99.90;;;;;;6193389;23;20429;-88
2020/12/10 06:00:40;;;;;;;46.83;21.27;;;1.30;99.90;;;;;;6164091;23;20437;-88
2020/12/10 06:03:20;;;;;;;45.10;22.47;;;1.30;99.90;;;;;;6159736;23;20882;-88
2020/12/10 06:06:02;;;;;;;42.70;19.90;;;1.30;99.90;;;;;;6184568;23;20444;-87
2020/12/10 06:09:10;;;;;;;44.57;21.40;;;1.30;99.90;;;;;;6156039;23;20400;-87
2020/12/10 06:11:38;;;;;;;47.77;21.60;;;1.30;99.90;;;;;;6209048;23;20382;-86
2020/12/10 06:14:13;;;;;;;52.57;21.77;;;1.30;99.90;;;;;;6211244;23;20430;-87
2020/12/10 06:16:40;;;;;;;50.13;23.20;;;1.30;99.90;;;;;;6184671;23;20494;-87
2020/12/10 06:19:10;;;;;;;49.40;22.33;;;1.40;99.90;;;;;;6184756;23;20421;-87
2020/12/10 06:21:46;;;;;;;54.33;25.50;;;1.40;99.90;;;;;;6184048;23;20390;-87
2020/12/10 06:24:27;;;;;;;49.97;21.77;;;1.40;99.90;;;;;;6183723;23;20419;-87
2020/12/10 06:26:54;;;;;;;43.33;21.50;;;1.30;99.90;;;;;;6211979;23;20461;-87
2020/12/10 06:29:31;;;;;;;46.17;21.40;;;1.30;99.90;;;;;;6183702;23;20394;-87
2020/12/10 06:32:25;;;;;;;42.70;21.40;;;1.30;99.90;;;;;;6184016;23;20379;-87
2020/12/10 06:34:56;;;;;;;55.77;23.20;;;1.30;99.90;;;;;;6184733;23;20956;-87
2020/12/10 06:37:30;;;;;;;49.50;22.00;;;1.30;99.90;;;;;;6184382;23;20375;-87
2020/12/10 06:40:10;;;;;;;49.27;22.30;;;1.30;99.90;;;;;;6184209;23;20422;-87
2020/12/10 06:42:59;;;;;;;51.43;23.83;;;1.30;99.90;;;;;;6179823;23;20385;-88
2020/12/10 06:45:42;;;;;;;57.20;22.40;;;1.30;99.90;;;;;;6183815;23;20493;-87
2020/12/10 06:48:17;;;;;;;52.93;22.67;;;1.30;99.90;;;;;;6186654;23;20378;-87
2020/12/10 06:51:15;;;;;;;54.43;23.57;;;1.20;99.90;;;;;;6186000;23;20765;-86
2020/12/10 06:54:01;;;;;;;60.00;22.07;;;1.30;99.90;;;;;;6194725;23;20517;-87
2020/12/10 06:56:32;;;;;;;55.67;22.93;;;1.30;99.90;;;;;;6186885;23;20469;-88
2020/12/10 06:59:01;;;;;;;54.20;22.70;;;1.30;99.90;;;;;;6186949;23;20703;-87
2020/12/10 07:01:36;;;;;;;60.00;22.40;;;1.30;99.90;;;;;;6186468;23;20481;-87
2020/12/10 07:07:19;;;;;;;52.37;22.13;;;1.30;99.90;;;;;;6224507;23;20367;-87
2020/12/10 07:09:57;;;;;;;47.80;21.73;;;1.30;99.90;;;;;;6186348;23;20394;-87
2020/12/10 07:12:27;;;;;;;50.93;20.77;;;1.30;99.90;;;;;;6212479;23;20381;-88
2020/12/10 07:15:17;;;;;;;44.93;19.17;;;1.30;99.90;;;;;;6187803;23;20772;-87
2020/12/10 07:18:21;;;;;;;51.73;20.37;;;1.30;99.90;;;;;;6186747;23;20434;-87
2020/12/10 07:21:37;;;;;;;43.93;20.90;;;1.30;99.90;;;;;;6172193;23;20448;-90
2020/12/10 07:27:56;;;;;;;45.30;19.40;;;1.30;99.90;;;;;;6133803;23;20575;-89
2020/12/10 07:33:28;;;;;;;48.10;19.83;;;1.40;99.90;;;;;;6180391;23;20457;-88
2020/12/10 07:36:06;;;;;;;48.07;22.17;;;1.30;99.90;;;;;;6147489;23;20858;-84
2020/12/10 07:38:33;;;;;;;50.40;22.67;;;1.40;99.90;;;;;;6160501;23;20223;-87
2020/12/10 07:40:58;;;;;;;51.93;21.93;;;1.40;99.90;;;;;;6163657;23;20831;-87
2020/12/10 07:43:26;;;;;;;55.10;21.97;;;1.40;99.90;;;;;;6165584;23;20380;-89
2020/12/10 07:45:55;;;;;;;48.10;22.73;;;1.40;99.90;;;;;;6161163;23;20176;-86
2020/12/10 07:48:21;;;;;;;48.40;22.37;;;1.40;99.90;;;;;;6132728;23;20387;-92
2020/12/10 07:50:49;;;;;;;48.83;22.97;;;1.50;99.90;;;;;;6158143;23;20416;-93
2020/12/10 07:55:56;;;;;;;43.17;20.60;;;1.50;99.90;;;;;;6148736;23;20948;-89
2020/12/10 07:59:16;;;;;;;;;;;;;;;;;;;;;
2020/12/10 08:08:55;;;;;;;42.83;21.57;;;1.40;99.90;;;;;;6150893;23;20360;-86
2020/12/10 08:11:21;;;;;;;48.67;22.30;;;1.50;99.90;;;;;;6151077;23;20373;-87
2020/12/10 08:13:58;;;;;;;55.43;26.23;;;1.50;99.90;;;;;;6151704;23;20757;-87
2020/12/10 08:16:34;;;;;;;41.07;20.10;;;1.60;99.90;;;;;;6150985;23;20464;-88
2020/12/10 08:19:10;;;;;;;43.93;22.97;;;1.60;99.90;;;;;;6121354;23;20435;-87
2020/12/10 08:21:36;;;;;;;37.57;21.80;;;1.70;99.90;;;;;;6150541;23;20385;-89
2020/12/10 08:24:01;;;;;;;47.17;21.30;;;1.80;99.90;;;;;;6123768;23;20373;-89
2020/12/10 08:26:27;;;;;;;35.77;17.83;;;1.80;99.90;;;;;;6149936;23;20196;-89
2020/12/10 08:28:57;;;;;;;42.77;20.87;;;1.80;99.90;;;;;;6123864;23;20157;-90
2020/12/10 08:31:26;;;;;;;38.17;19.10;;;1.90;99.90;;;;;;6124510;23;20153;-88
2020/12/10 08:33:52;;;;;;;36.60;19.97;;;2.00;99.90;;;;;;6149859;23;20428;-87
2020/12/10 08:36:29;;;;;;;44.43;19.40;;;2.00;99.90;;;;;;6148710;23;20381;-89
2020/12/10 08:38:56;;;;;;;36.83;20.03;;;1.90;99.90;;;;;;6149423;23;20440;-86
2020/12/10 08:41:29;;;;;;;42.30;21.17;;;2.00;99.90;;;;;;6149695;23;20357;-87
2020/12/10 08:44:06;;;;;;;34.93;19.97;;;2.00;99.90;;;;;;6150967;23;20373;-84
2020/12/10 08:46:42;;;;;;;39.17;20.10;;;2.00;99.90;;;;;;6125454;23;20727;-86
2020/12/10 08:49:21;;;;;;;36.10;20.10;;;2.00;99.90;;;;;;6124387;23;20878;-86
2020/12/10 08:51:49;;;;;;;34.47;19.17;;;2.10;99.90;;;;;;6123768;23;20850;-86
2020/12/10 08:54:15;;;;;;;36.53;18.90;;;2.10;99.90;;;;;;6122998;23;20784;-86
2020/12/10 08:56:42;;;;;;;52.17;20.50;;;2.10;99.90;;;;;;6150768;23;20488;-86
2020/12/10 08:59:08;;;;;;;34.37;20.60;;;2.20;99.90;;;;;;6124718;23;20393;-84
2020/12/10 09:01:34;;;;;;;38.07;19.53;;;2.10;99.90;;;;;;6145673;23;20365;-84
2020/12/10 09:04:06;;;;;;;30.47;19.03;;;2.20;99.90;;;;;;6151107;23;20374;-88
2020/12/10 09:09:29;;;;;;;32.23;18.20;;;2.10;99.90;;;;;;6133489;23;20388;-88
2020/12/10 09:11:55;;;;;;;29.80;17.30;;;2.10;99.90;;;;;;6151093;23;20476;-88
2020/12/10 09:14:20;;;;;;;30.30;17.10;;;2.10;99.90;;;;;;6151768;23;20486;-88
2020/12/10 09:16:46;;;;;;;36.00;18.57;;;2.20;99.90;;;;;;6148438;23;20192;-89
2020/12/10 09:19:14;;;;;;;31.07;17.83;;;2.20;99.90;;;;;;6150241;23;20145;-89
2020/12/10 09:21:39;;;;;;;33.93;18.60;;;2.30;99.90;;;;;;6124127;23;20142;-91
2020/12/10 09:24:05;;;;;;;34.90;18.50;;;2.40;99.90;;;;;;6124885;23;20468;-86
2020/12/10 09:26:32;;;;;;;33.27;17.90;;;2.40;99.90;;;;;;6150159;23;20213;-88
2020/12/10 09:28:58;;;;;;;30.70;16.30;;;2.40;99.90;;;;;;6124188;23;20515;-87
2020/12/10 09:31:23;;;;;;;32.27;16.87;;;2.50;99.90;;;;;;6150397;23;20370;-87
2020/12/10 09:33:49;;;;;;;29.43;17.30;;;2.60;99.90;;;;;;6123261;23;20544;-87
2020/12/10 09:36:15;;;;;;;29.23;15.93;;;2.50;99.90;;;;;;6151234;23;20138;-89
2020/12/10 09:38:44;;;;;;;29.97;16.10;;;2.50;99.90;;;;;;6149114;23;20710;-89
2020/12/10 09:41:10;;;;;;;26.90;16.03;;;2.50;99.90;;;;;;6148920;23;20168;-89
2020/12/10 09:43:35;;;;;;;32.40;18.30;;;2.60;99.90;;;;;;6146207;23;20374;-88
2020/12/10 09:46:09;;;;;;;36.40;18.50;;;2.60;99.90;;;;;;6148386;23;20144;-86
2020/12/10 09:48:35;;;;;;;28.53;16.70;;;2.60;99.90;;;;;;6150346;23;20453;-87
2020/12/10 09:51:02;;;;;;;29.60;17.00;;;2.60;99.90;;;;;;6124936;23;20393;-87
2020/12/10 09:53:36;;;;;;;33.03;17.23;;;2.50;99.90;;;;;;6150093;23;20259;-88
2020/12/10 09:58:43;;;;;;;35.90;19.00;;;2.60;99.90;;;;;;6160374;23;20374;-86
2020/12/10 10:01:10;;;;;;;30.30;17.20;;;2.60;99.90;;;;;;6147392;23;20385;-89
2020/12/10 10:03:36;;;;;;;32.03;17.70;;;2.60;99.90;;;;;;6149504;23;20370;-87
2020/12/10 10:06:02;;;;;;;29.67;17.30;;;2.60;99.90;;;;;;6148800;23;20405;-87
2020/12/10 10:08:30;;;;;;;32.10;18.23;;;2.60;99.90;;;;;;6150327;23;20549;-86
2020/12/10 10:10:55;;;;;;;38.90;18.47;;;2.60;99.90;;;;;;6148379;23;20377;-86
2020/12/10 10:13:21;;;;;;;33.23;19.30;;;2.60;99.90;;;;;;6149917;23;20399;-87
2020/12/10 10:15:47;;;;;;;31.90;17.50;;;2.60;99.90;;;;;;6151313;23;20149;-87
2020/12/10 10:18:16;;;;;;;30.60;17.63;;;2.60;99.90;;;;;;6124121;23;20910;-87
2020/12/10 10:20:42;;;;;;;31.93;18.00;;;2.60;99.90;;;;;;6149968;23;20380;-87
2020/12/10 10:23:08;;;;;;;34.40;19.10;;;2.60;99.90;;;;;;6127005;23;20394;-86
2020/12/10 10:25:33;;;;;;;34.70;18.83;;;2.50;99.90;;;;;;6121386;23;20969;-86
2020/12/10 10:27:59;;;;;;;34.80;19.70;;;2.50;99.90;;;;;;6151000;23;20142;-86
2020/12/10 10:30:26;;;;;;;35.40;19.10;;;2.50;99.90;;;;;;6125078;23;20157;-86
2020/12/10 10:32:52;;;;;;;34.77;19.83;;;2.40;99.90;;;;;;6151484;23;20137;-86
2020/12/10 10:35:17;;;;;;;37.20;18.40;;;2.40;99.90;;;;;;6149875;23;21068;-87
2020/12/10 10:37:44;;;;;;;36.57;18.90;;;2.40;99.90;;;;;;6151049;23;20376;-85
2020/12/10 10:40:11;;;;;;;28.77;16.90;;;2.40;99.90;;;;;;6150912;23;20689;-89
2020/12/10 10:42:39;;;;;;;34.43;18.53;;;2.40;99.90;;;;;;6150837;23;20369;-88
2020/12/10 10:45:04;;;;;;;35.90;18.00;;;2.40;99.90;;;;;;6151843;23;20396;-86
2020/12/10 10:47:30;;;;;;;29.63;17.73;;;2.40;99.90;;;;;;6150880;23;20384;-86
2020/12/10 10:49:57;;;;;;;32.90;17.50;;;2.40;99.90;;;;;;6151584;23;20141;-86
2020/12/10 10:52:25;;;;;;;29.60;16.90;;;2.40;99.90;;;;;;6152287;23;20152;-88
2020/12/10 10:54:51;;;;;;;33.27;18.10;;;2.40;99.90;;;;;;6151620;23;20858;-86
2020/12/10 10:57:17;;;;;;;37.87;19.60;;;2.40;99.90;;;;;;6151957;23;20388;-88
2020/12/10 10:59:43;;;;;;;32.87;18.37;;;2.40;99.90;;;;;;6125263;23;20216;-86
2020/12/10 11:02:09;;;;;;;29.87;18.43;;;2.50;99.90;;;;;;6151962;23;20373;-87
2020/12/10 11:04:35;;;;;;;32.07;18.00;;;2.50;99.90;;;;;;6125599;23;20153;-87
2020/12/10 11:07:01;;;;;;;31.90;16.13;;;2.50;99.90;;;;;;6152844;23;20380;-87
2020/12/10 11:09:26;;;;;;;32.83;18.17;;;2.50;99.90;;;;;;6145117;23;20248;-88
2020/12/10 11:11:53;;;;;;;28.53;16.97;;;2.60;99.90;;;;;;6124436;23;20197;-86
2020/12/10 11:14:19;;;;;;;29.30;16.90;;;2.70;99.90;;;;;;6152578;23;20181;-86
2020/12/10 11:16:56;;;;;;;27.90;17.30;;;2.70;99.90;;;;;;6151396;23;20689;-87
2020/12/10 11:19:23;;;;;;;28.73;15.77;;;2.70;99.90;;;;;;6151239;23;20373;-87
2020/12/10 11:21:48;;;;;;;30.07;17.33;;;2.80;99.90;;;;;;6150061;23;20752;-87
2020/12/10 11:24:14;;;;;;;28.50;17.27;;;2.90;99.90;;;;;;6150990;23;20385;-87
2020/12/10 11:26:40;;;;;;;29.57;17.03;;;2.90;99.90;;;;;;6125576;23;20651;-86
2020/12/10 11:29:06;;;;;;;28.73;16.47;;;3.00;99.90;;;;;;6148331;23;20154;-88
2020/12/10 11:31:31;;;;;;;29.97;16.00;;;3.10;99.90;;;;;;6149586;23;20145;-89
2020/12/10 11:33:57;;;;;;;27.10;15.80;;;3.20;99.90;;;;;;6124358;23;20579;-87
2020/12/10 11:36:23;;;;;;;30.37;16.70;;;3.10;99.90;;;;;;6149740;23;20464;-87
2020/12/10 11:38:49;;;;;;;28.07;17.60;;;3.10;99.90;;;;;;6149955;23;20180;-87
2020/12/10 11:41:19;;;;;;;30.93;16.40;;;3.20;99.90;;;;;;6148856;23;20208;-88
2020/12/10 11:44:00;;;;;;;28.87;16.37;;;3.30;99.90;;;;;;6150188;23;20599;-86
2020/12/10 11:46:26;;;;;;;27.80;17.00;;;3.30;99.90;;;;;;6125614;23;20388;-85
2020/12/10 11:48:52;;;;;;;25.20;16.60;;;3.30;99.90;;;;;;6151585;23;20392;-87
2020/12/10 11:51:23;;;;;;;28.97;14.97;;;3.30;99.90;;;;;;6145411;23;20495;-92
2020/12/10 11:53:55;;;;;;;24.33;15.20;;;3.30;99.90;;;;;;6151497;23;20598;-88
2020/12/10 11:56:21;;;;;;;22.60;14.50;;;3.30;99.90;;;;;;6152122;23;20397;-86
2020/12/10 11:58:46;;;;;;;25.60;16.10;;;3.30;99.90;;;;;;6151214;23;20966;-87
2020/12/10 12:01:46;;;;;;;23.00;14.53;;;3.40;99.90;;;;;;6150625;23;20230;-93
2020/12/10 12:04:12;;;;;;;24.00;15.07;;;3.40;99.90;;;;;;6125455;23;20161;-90
2020/12/10 12:06:38;;;;;;;23.50;14.30;;;3.30;99.90;;;;;;6151579;23;20420;-89
2020/12/10 12:09:04;;;;;;;28.53;15.57;;;3.20;99.90;;;;;;6125703;23;20723;-90
2020/12/10 12:11:29;;;;;;;25.30;15.20;;;3.20;99.90;;;;;;6125433;23;20153;-92
2020/12/10 12:13:55;;;;;;;26.70;15.40;;;3.20;99.90;;;;;;6124544;23;20188;-90
2020/12/10 12:16:23;;;;;;;28.27;15.67;;;3.30;99.90;;;;;;6150065;23;20145;-88
2020/12/10 12:22:04;;;;;;;22.73;14.23;;;3.30;99.90;;;;;;6151362;23;20368;-90
2020/12/10 12:24:54;;;;;;;26.00;14.63;;;3.20;99.90;;;;;;6125665;23;20756;-89
2020/12/10 12:27:31;;;;;;;25.80;16.00;;;3.20;99.90;;;;;;6124871;23;20389;-89
2020/12/10 12:30:12;;;;;;;25.50;14.70;;;3.20;99.90;;;;;;6125413;23;20428;-89
2020/12/10 12:32:37;;;;;;;25.67;14.93;;;3.20;99.90;;;;;;6151122;23;20401;-87
2020/12/10 12:35:03;;;;;;;24.50;16.13;;;3.30;99.90;;;;;;6145947;23;20424;-86
2020/12/10 12:37:29;;;;;;;26.17;15.70;;;3.30;99.90;;;;;;6149504;23;20140;-87
2020/12/10 12:39:54;;;;;;;25.30;15.17;;;3.30;99.90;;;;;;6150868;23;20523;-84
2020/12/10 12:42:20;;;;;;;25.17;15.10;;;3.20;99.90;;;;;;6150512;23;20141;-85
2020/12/10 12:44:46;;;;;;;25.07;14.90;;;3.20;99.90;;;;;;6124887;23;20214;-86
2020/12/10 12:47:12;;;;;;;30.07;17.10;;;3.20;99.90;;;;;;6125586;23;20157;-86
2020/12/10 12:49:39;;;;;;;26.93;16.07;;;3.30;99.90;;;;;;6124328;23;20407;-86
2020/12/10 12:52:05;;;;;;;33.47;19.00;;;3.30;99.90;;;;;;6149797;23;20152;-86
2020/12/10 12:54:30;;;;;;;29.50;15.97;;;3.30;99.90;;;;;;6124528;23;20746;-88
2020/12/10 12:56:56;;;;;;;26.00;15.20;;;3.30;99.90;;;;;;6123874;23;20215;-87
2020/12/10 12:59:22;;;;;;;26.57;15.53;;;3.30;99.90;;;;;;6124079;23;20542;-87
2020/12/10 13:01:47;;;;;;;26.13;15.43;;;3.30;99.90;;;;;;6149115;23;20177;-86
2020/12/10 13:04:15;;;;;;;23.60;15.03;;;3.40;99.90;;;;;;6150381;23;20491;-92
2020/12/10 13:06:45;;;;;;;28.80;15.77;;;3.30;99.90;;;;;;6151078;23;20231;-88
2020/12/10 13:09:12;;;;;;;27.07;16.53;;;3.20;99.90;;;;;;6124118;23;20387;-88
2020/12/10 13:11:38;;;;;;;30.60;16.70;;;3.10;99.90;;;;;;6124438;23;20793;-88
2020/12/10 13:14:04;;;;;;;28.67;16.00;;;3.10;99.90;;;;;;6124701;23;20447;-88
2020/12/10 13:16:30;;;;;;;27.47;15.73;;;3.20;99.90;;;;;;6150273;23;20388;-89
2020/12/10 13:18:56;;;;;;;24.83;13.93;;;3.30;99.90;;;;;;6124637;23;20421;-90
2020/12/10 13:21:23;;;;;;;27.90;16.00;;;3.40;99.90;;;;;;6125350;23;20385;-90
2020/12/10 13:23:50;;;;;;;28.77;15.80;;;3.30;99.90;;;;;;6125275;23;20486;-88
2020/12/10 13:26:23;;;;;;;28.10;16.27;;;3.30;99.90;;;;;;6124716;23;20478;-86
2020/12/10 13:28:49;;;;;;;28.53;16.03;;;3.20;99.90;;;;;;6124598;23;20416;-86
2020/12/10 13:31:14;;;;;;;30.27;16.97;;;3.20;99.90;;;;;;6124861;23;20396;-86
2020/12/10 13:33:40;;;;;;;26.77;15.77;;;3.00;99.90;;;;;;6123647;23;20495;-87
2020/12/10 13:36:09;;;;;;;28.40;17.10;;;3.00;99.90;;;;;;6123376;23;20247;-85
2020/12/10 13:38:35;;;;;;;29.00;16.33;;;3.00;99.90;;;;;;6125164;23;20529;-85
2020/12/10 13:41:01;;;;;;;26.20;15.97;;;3.00;99.90;;;;;;6121721;23;20396;-86
2020/12/10 13:43:27;;;;;;;24.00;16.17;;;3.10;99.90;;;;;;6123902;23;20800;-87
2020/12/10 13:45:53;;;;;;;29.30;17.40;;;3.10;99.90;;;;;;6124661;23;20389;-86
2020/12/10 13:48:21;;;;;;;26.00;16.63;;;3.00;99.90;;;;;;6124789;23;20396;-87
2020/12/10 13:50:47;;;;;;;27.97;17.70;;;3.00;99.90;;;;;;6124823;23;20225;-87
2020/12/10 13:53:13;;;;;;;26.27;16.67;;;2.90;99.90;;;;;;6150322;23;20843;-88
2020/12/10 13:55:39;;;;;;;33.17;17.07;;;2.90;99.90;;;;;;6123315;23;20267;-87
2020/12/10 13:58:04;;;;;;;26.83;17.03;;;2.90;99.90;;;;;;6123605;23;20204;-86